Latest Weather Observations for Hay Airport

IDN60801

Issued at 6:03 pm EST Sunday 26 June 2016 (issued every 30 minutes, with the page automatically refreshed every 10 minutes)

About weather observations | Map of weather stations | Latest weather observations for NSW | Other Formats
Station Details ID: 075019 Name: HAY AIRPORT AWS Lat: -34.54 Lon: 144.83 Height: 92.0 m
Data from the previous 72 hours. | See also: Recent months at Hay Airport
Date/Time
EST
Temp
°C
App
Temp
°C
Dew
Point
°C
Rel
Hum
%
Delta-T
°C
Wind Press
QNH
hPa
Press
MSL
hPa
Rain since
9am
mm
Dir  Spd
km/h
Gust
km/h
Spd
kts
Gust
kts
26/06:00pm 6.1 5.0 5.1 93 0.4 CALM 0 0 0 0 1018.3 1018.4 0.0
26/05:30pm 6.3 5.2 5.3 93 0.4 CALM 0 0 0 0 1018.2 1018.3 0.0
26/05:00pm 6.7 5.6 5.3 91 0.6 CALM 0 0 0 0 1018.3 1018.4 0.0
26/04:30pm 7.1 6.1 5.6 90 0.7 CALM 0 0 0 0 1018.1 1018.2 0.0
26/04:00pm 7.4 6.4 5.4 87 0.9 CALM 0 0 0 0 1018.2 1018.3 0.0
26/03:30pm 7.6 6.6 5.6 87 0.9 CALM 0 0 0 0 1018.4 1018.5 0.0
26/03:00pm 7.9 6.9 5.4 84 1.1 CALM 0 0 0 0 1018.6 1018.7 0.0
26/02:30pm 7.9 6.7 4.8 81 1.4 CALM 0 6 0 3 1019.1 1019.2 0.0
26/02:00pm 8.1 5.9 5.2 82 1.3 NW 6 9 3 5 1019.3 1019.4 0.0
26/01:30pm 8.1 5.7 5.4 83 1.2 NNW 7 13 4 7 1019.6 1019.7 0.0
26/01:00pm 7.8 5.0 5.1 83 1.2 NNW 9 11 5 6 1019.9 1020.0 0.0
26/12:30pm 7.5 5.6 5.0 84 1.1 N 4 9 2 5 1020.1 1020.3 0.0
26/12:00pm 7.0 4.5 4.8 86 1.0 N 7 11 4 6 1020.7 1020.9 0.0
26/11:30am 6.7 3.5 4.9 88 0.8 NNE 11 15 6 8 1021.1 1021.3 0.0
26/11:00am 6.6 3.9 5.4 92 0.5 NNE 9 13 5 7 1021.0 1021.2 0.0
26/10:30am 5.7 3.0 5.6 99 0.0 NE 9 11 5 6 1021.2 1021.4 0.0
26/10:00am 4.0 2.7 3.9 99 0.0 CALM 0 0 0 0 1021.6 1021.8 0.0
26/09:30am 3.4 1.6 3.3 99 0.0 ENE 2 7 1 4 1021.9 1022.1 0.0
26/09:00am 1.9 0.2 1.8 99 0.0 CALM 0 0 0 0 1022.3 1022.5 0.0
26/08:30am 0.2 -1.8 0.1 99 0.0 CALM 0 0 0 0 1022.6 1022.7 0.0
26/08:00am 0.2 -1.8 0.1 99 0.0 CALM 0 0 0 0 1022.7 1022.8 0.0
26/07:30am -0.1 -2.1 -0.2 99 0.0 CALM 0 0 0 0 1022.6 1022.7 0.0
26/07:00am 0.1 -1.9 0.0 99 0.0 CALM 0 0 0 0 1022.2 1022.4 0.0
26/06:30am 0.3 -1.7 0.2 99 0.0 CALM 0 0 0 0 1022.1 1022.3 0.0
26/06:00am 0.1 -1.9 0.0 99 0.0 CALM 0 0 0 0 1021.7 1021.9 0.0
26/05:30am 0.0 -2.0 -0.1 99 0.0 CALM 0 0 0 0 1021.8 1022.0 0.0
26/05:00am 0.0 -2.0 -0.1 99 0.0 CALM 0 0 0 0 1021.3 1021.5 0.0
26/04:30am 0.1 -1.9 0.0 99 0.0 CALM 0 0 0 0 1021.3 1021.5 0.0
26/04:00am -0.6 -2.7 -0.7 99 0.0 CALM 0 0 0 0 1021.2 1021.4 0.0
26/03:30am 0.1 -1.9 0.0 99 0.0 CALM 0 0 0 0 1021.5 1021.7 0.0
26/03:00am 0.0 -2.0 -0.1 99 0.0 CALM 0 0 0 0 1021.7 1021.9 0.0
26/02:30am 0.0 -2.0 -0.1 99 0.0 CALM 0 0 0 0 1021.9 1022.1 0.0
26/02:00am -0.4 -2.5 -0.5 99 0.0 CALM 0 0 0 0 1021.5 1021.7 0.0
26/01:30am -0.4 -2.5 -0.5 99 0.0 CALM 0 0 0 0 1021.5 1021.7 0.0
26/01:00am 0.0 -2.0 -0.1 99 0.0 CALM 0 0 0 0 1021.8 1022.0 0.0
26/12:30am -0.1 -2.1 -0.2 99 0.0 CALM 0 0 0 0 1022.1 1022.3 0.0
26/12:00am 0.4 -1.5 0.3 99 0.0 CALM 0 0 0 0 1022.7 1022.8 0.0
 
Date/Time
EST
Temp
°C
App
Temp
°C
Dew
Point
°C
Rel
Hum
%
Delta-T
°C
Wind Press
QNH
hPa
Press
MSL
hPa
Rain since
9am
mm
Dir  Spd
km/h
Gust
km/h
Spd
kts
Gust
kts
25/11:30pm 1.1 -0.7 1.0 99 0.0 CALM 0 0 0 0 1023.0 1023.1 0.0
25/11:00pm 1.1 -0.7 1.0 99 0.0 CALM 0 0 0 0 1023.2 1023.3 0.0
25/10:30pm 1.8 0.1 1.7 99 0.0 CALM 0 0 0 0 1023.6 1023.7 0.0
25/10:00pm 1.5 -0.3 1.4 99 0.0 CALM 0 4 0 2 1024.0 1024.1 0.0
25/09:30pm 1.4 -1.5 1.3 99 0.0 NW 6 9 3 5 1024.0 1024.1 0.0
25/09:00pm 2.2 0.5 1.9 98 0.1 CALM 0 0 0 0 1023.7 1023.8 0.0
25/08:30pm 2.9 1.3 2.6 98 0.1 CALM 0 0 0 0 1023.5 1023.6 0.0
25/08:00pm 3.0 1.4 2.4 96 0.2 CALM 0 0 0 0 1023.4 1023.5 0.0
25/07:30pm 3.5 1.9 2.6 94 0.4 CALM 0 0 0 0 1023.5 1023.6 0.0
25/07:00pm 3.9 2.2 2.1 88 0.7 CALM 0 0 0 0 1023.5 1023.6 0.0
25/06:30pm 5.4 3.2 3.1 85 1.0 WSW 4 6 2 3 1023.5 1023.6 0.0
25/06:00pm 7.0 4.2 3.3 77 1.6 SW 7 9 4 5 1023.4 1023.5 0.0
25/05:30pm 8.0 5.3 3.7 74 1.9 SW 7 7 4 4 1023.4 1023.5 0.0
25/05:00pm 9.4 6.8 4.4 71 2.2 SW 7 9 4 5 1023.3 1023.4 0.0
25/04:30pm 10.5 7.1 4.2 65 2.8 SW 11 17 6 9 1023.1 1023.2 0.0
25/04:00pm 11.0 7.8 3.1 58 3.4 SSW 9 17 5 9 1023.3 1023.4 0.0
25/03:30pm 11.1 7.2 3.4 59 3.4 WSW 13 17 7 9 1023.5 1023.6 0.0
25/03:00pm 10.3 6.7 2.9 60 3.2 SW 11 15 6 8 1023.3 1023.4 0.0
25/02:30pm 11.2 7.4 4.0 61 3.2 SW 13 20 7 11 1023.4 1023.5 0.0
25/02:00pm 10.9 7.1 3.7 61 3.2 SW 13 20 7 11 1023.4 1023.5 0.0
25/01:30pm 11.0 7.5 3.5 60 3.3 SW 11 17 6 9 1023.9 1024.0 0.0
25/01:00pm 10.4 6.1 3.2 61 3.1 WSW 15 17 8 9 1024.1 1024.2 0.0
25/12:30pm 10.1 6.1 4.7 69 2.4 SW 15 19 8 10 1024.5 1024.6 0.0
25/12:00pm 9.7 5.3 4.5 70 2.3 SW 17 20 9 11 1024.8 1024.9 0.0
25/11:30am 8.7 5.0 4.7 76 1.8 SW 13 19 7 10 1025.1 1025.2 0.0
25/11:00am 7.7 4.1 5.2 84 1.1 WSW 13 19 7 10 1025.3 1025.4 0.0
25/10:30am 6.9 3.3 4.9 87 0.9 WSW 13 19 7 10 1025.4 1025.5 0.0
25/10:00am 6.0 1.9 4.6 91 0.6 SW 15 19 8 10 1025.2 1025.3 0.0
25/09:30am 4.3 0.9 3.9 97 0.2 SW 11 15 6 8 1025.1 1025.2 0.0
25/09:00am 3.0 -0.6 2.9 99 0.0 W 11 15 6 8 1024.7 1024.8 0.2
25/08:30am 1.4 -2.5 1.3 99 0.0 W 11 15 6 8 1024.4 1024.5 0.2
25/08:00am 0.5 -3.9 0.4 99 0.0 W 13 17 7 9 1024.4 1024.5 0.0
25/07:30am -0.3 -4.8 -0.4 99 0.0 W 13 15 7 8 1024.0 1024.1 0.0
25/07:00am -0.4 -4.2 -0.5 99 0.0 W 9 13 5 7 1023.7 1023.8 0.0
25/06:30am -0.5 -4.3 -0.6 99 0.0 W 9 11 5 6 1023.3 1023.4 0.0
25/06:00am -0.1 -3.8 -0.2 99 0.0 W 9 11 5 6 1023.1 1023.2 0.0
25/05:30am -0.2 -3.9 -0.3 99 0.0 WSW 9 9 5 5 1022.8 1022.9 0.0
25/05:00am 0.0 -3.7 -0.1 99 0.0 WSW 9 11 5 6 1022.3 1022.5 0.0
25/04:30am 0.2 -3.5 0.1 99 0.0 WSW 9 11 5 6 1022.0 1022.2 0.0
25/04:00am 1.0 -3.3 0.9 99 0.0 WSW 13 15 7 8 1021.8 1022.0 0.0
25/03:30am 1.1 -3.2 1.0 99 0.0 WSW 13 17 7 9 1021.8 1022.0 0.0
25/03:00am 1.2 -3.5 1.1 99 0.0 WSW 15 17 8 9 1021.8 1022.0 0.0
25/02:30am 1.7 -3.3 1.6 99 0.0 WSW 17 20 9 11 1021.7 1021.9 0.0
25/02:00am 1.8 -2.8 1.7 99 0.0 WSW 15 17 8 9 1021.6 1021.8 0.0
25/01:30am 2.1 -2.5 1.8 98 0.1 WSW 15 17 8 9 1021.4 1021.6 0.0
25/01:00am 2.5 -2.4 2.1 97 0.2 WSW 17 20 9 11 1021.2 1021.4 0.0
25/12:30am 2.7 -1.8 2.1 96 0.2 WSW 15 17 8 9 1021.1 1021.3 0.0
25/12:00am 3.3 -1.9 2.4 94 0.4 WSW 19 24 10 13 1020.9 1021.1 0.0
 
Date/Time
EST
Temp
°C
App
Temp
°C
Dew
Point
°C
Rel
Hum
%
Delta-T
°C
Wind Press
QNH
hPa
Press
MSL
hPa
Rain since
9am
mm
Dir  Spd
km/h
Gust
km/h
Spd
kts
Gust
kts
24/11:30pm 3.7 -1.5 2.5 92 0.5 W 19 22 10 12 1020.6 1020.8 0.0
24/11:00pm 3.7 -1.5 2.5 92 0.5 W 19 22 10 12 1020.4 1020.6 0.0
24/10:30pm 3.3 -0.8 2.0 91 0.5 W 13 19 7 10 1020.4 1020.6 0.0
24/10:00pm 3.8 -1.4 2.3 90 0.6 W 19 24 10 13 1020.0 1020.1 0.0
24/09:30pm 4.3 -1.1 2.5 88 0.7 W 20 28 11 15 1019.7 1019.8 0.0
24/09:00pm 4.7 -0.7 2.7 87 0.8 W 20 26 11 14 1019.4 1019.5 0.0
24/08:30pm 5.3 -0.4 2.8 84 1.0 WSW 22 32 12 17 1018.8 1018.9 0.0
24/08:00pm 5.1 -0.2 3.1 87 0.8 WSW 20 26 11 14 1018.4 1018.5 0.0
24/07:30pm 4.6 0.3 3.3 91 0.5 W 15 19 8 10 1017.8 1017.9 0.0
24/07:00pm 5.2 0.9 3.4 88 0.7 W 15 19 8 10 1017.3 1017.4 0.0
24/06:30pm 6.4 1.4 3.6 82 1.2 WSW 19 24 10 13 1016.6 1016.7 0.0
24/06:00pm 6.7 1.7 3.7 81 1.3 W 19 26 10 14 1016.0 1016.1 0.0
24/05:30pm 7.5 1.6 4.1 79 1.5 WSW 24 30 13 16 1015.3 1015.4 0.0
24/05:00pm 8.7 2.2 4.5 75 1.9 W 28 35 15 19 1014.5 1014.6 0.0
24/04:30pm 9.6 1.7 4.4 70 2.3 W 35 50 19 27 1013.7 1013.8 0.0
24/04:00pm 9.9 1.7 4.5 69 2.4 WSW 37 57 20 31 1013.2 1013.3 0.0
24/03:52pm 10.0 1.3 4.2 67 2.6 WSW 39 57 21 31 1013.1 1013.2 0.0
24/03:30pm 9.4 0.3 3.8 68 2.5 WSW 41 50 22 27 1012.8 1012.9 0.0
24/03:00pm 10.2 2.4 4.8 69 2.4 WSW 35 48 19 26 1012.3 1012.4 0.0
24/02:53pm 9.9 0.8 4.1 67 2.6 WSW 41 59 22 32 1012.2 1012.3 0.0
24/02:30pm 9.7 -0.1 3.4 65 2.7 WSW 44 59 24 32 1011.8 1011.9 0.0
24/02:00pm 9.9 1.3 4.7 70 2.3 WSW 39 50 21 27 1011.6 1011.7 0.0
24/01:30pm 10.6 1.6 4.7 67 2.7 WSW 41 54 22 29 1011.1 1011.3 0.0
24/01:00pm 10.2 0.3 5.0 70 2.4 WSW 46 59 25 32 1010.9 1011.0 0.0
24/12:30pm 9.3 0.0 4.9 74 2.0 WSW 43 52 23 28 1010.7 1010.8 0.0
24/12:00pm 9.0 -0.5 5.0 76 1.8 W 44 59 24 32 1010.7 1010.8 0.0
24/11:31am 9.0 -0.4 5.4 78 1.6 WSW 44 63 24 34 1010.5 1010.6 0.0
24/11:30am 9.0 -0.8 5.4 78 1.6 WSW 46 63 25 34 1010.5 1010.6 0.0
24/11:00am 8.8 0.1 5.9 82 1.3 W 41 59 22 32 1010.3 1010.4 0.0
24/10:53am 8.4 -0.5 5.2 80 1.4 W 41 59 22 32 1010.1 1010.2 0.0
24/10:30am 8.4 0.1 5.9 84 1.1 W 39 54 21 29 1009.8 1009.9 0.0
24/10:00am 8.0 0.0 5.8 86 1.0 WNW 37 54 20 29 1009.2 1009.3 0.0
24/09:57am 8.2 0.7 6.2 87 0.9 WNW 35 54 19 29 1009.1 1009.2 0.0
24/09:30am 7.4 0.6 6.7 95 0.3 WNW 32 43 17 23 1008.8 1008.9 0.0
24/09:00am 6.7 0.1 6.0 95 0.3 WNW 30 41 16 22 1008.3 1008.4 1.8
24/08:30am 6.8 0.7 6.5 98 0.1 WNW 28 39 15 21 1008.1 1008.2 1.4
24/08:00am 6.7 1.4 6.6 99 0.0 WNW 24 30 13 16 1007.5 1007.6 1.2
24/07:30am 6.0 0.5 5.9 99 0.0 NW 24 30 13 16 1007.0 1007.1 0.8
24/07:00am 6.0 0.5 5.9 99 0.0 NW 24 32 13 17 1006.7 1006.8 0.8
24/06:30am 6.2 0.4 6.1 99 0.0 NW 26 35 14 19 1006.3 1006.4 0.8
24/06:00am 6.5 0.0 6.4 99 0.0 NW 30 39 16 21 1006.2 1006.3 0.8
24/05:30am 6.5 0.0 6.4 99 0.0 NW 30 39 16 21 1005.9 1006.0 0.8
24/05:00am 6.9 0.8 6.6 98 0.1 NW 28 33 15 18 1005.7 1005.8 0.8
24/04:30am 7.1 1.4 6.5 96 0.3 NW 26 33 14 18 1005.4 1005.5 0.8
24/04:00am 7.2 1.1 6.6 96 0.3 NW 28 33 15 18 1005.2 1005.3 0.8
24/03:30am 7.2 1.8 6.5 95 0.3 NW 24 32 13 17 1005.2 1005.3 0.8
24/03:00am 7.4 1.6 6.3 93 0.5 NW 26 35 14 19 1005.3 1005.4 0.8
24/02:30am 7.8 2.3 6.1 89 0.8 NW 24 32 13 17 1005.1 1005.2 0.8
24/02:00am 7.7 2.7 6.3 91 0.6 NW 22 30 12 16 1004.9 1005.0 0.8
24/01:30am 7.8 3.6 7.4 97 0.2 NNW 19 24 10 13 1004.6 1004.7 0.8
24/01:00am 8.2 4.1 7.8 97 0.2 NNW 19 24 10 13 1004.5 1004.6 0.8
24/12:30am 8.3 4.6 8.0 98 0.1 NW 17 20 9 11 1005.0 1005.1 0.8
24/12:00am 8.5 4.5 8.2 98 0.1 WNW 19 26 10 14 1005.2 1005.3 0.8
 
Date/Time
EST
Temp
°C
App
Temp
°C
Dew
Point
°C
Rel
Hum
%
Delta-T
°C
Wind Press
QNH
hPa
Press
MSL
hPa
Rain since
9am
mm
Dir  Spd
km/h
Gust
km/h
Spd
kts
Gust
kts
23/11:30pm 8.6 5.0 8.5 99 0.0 W 17 20 9 11 1005.4 1005.5 0.8
23/11:00pm 8.7 4.6 8.6 99 0.0 WSW 20 30 11 16 1005.5 1005.6 0.8
23/10:30pm 8.7 2.1 8.6 99 0.0 WSW 33 43 18 23 1005.2 1005.3 0.8
23/10:00pm 9.5 2.9 8.6 94 0.4 WNW 33 48 18 26 1004.9 1005.0 0.2
23/09:58pm 10.2 3.6 8.6 90 0.8 WNW 33 48 18 26 1004.8 1004.9 0.0
23/09:47pm 11.3 5.6 9.7 90 0.8 NW 30 48 16 26 1004.2 1004.3 0.0
23/09:30pm 11.0 5.3 9.8 92 0.6 NNW 30 39 16 21 1003.7 1003.8 0.0
23/09:00pm 10.7 5.4 9.8 94 0.5 NNW 28 33 15 18 1003.5 1003.6 0.0
23/08:30pm 10.8 6.0 10.2 96 0.3 NNW 26 33 14 18 1003.4 1003.5 0.0
23/08:00pm 10.8 6.8 10.6 99 0.1 N 22 28 12 15 1003.4 1003.5 0.0
23/07:30pm 10.8 7.2 10.6 99 0.1 N 20 26 11 14 1003.4 1003.5 0.0
23/07:00pm 11.4 6.7 10.8 96 0.3 N 26 35 14 19 1002.9 1003.0 0.0
23/06:30pm 11.2 6.9 10.9 98 0.2 N 24 30 13 16 1003.1 1003.2 0.0

Other Formats:

Comma delimited format used in spreadsheet applications
http://www.bom.gov.au/fwo/IDN60801/IDN60801.94702.axf

JavaScript Object Notation format (JSON) in row-major order
http://www.bom.gov.au/fwo/IDN60801/IDN60801.94702.json